createdAt,value
2022-11-03T00:00:00.991Z,10.28
2022-11-03T00:05:05.113Z,10.21
2022-11-03T00:10:09.288Z,10.28
2022-11-03T00:15:13.430Z,10.25
2022-11-03T00:20:17.613Z,10.26
2022-11-03T00:25:21.743Z,10.27
2022-11-03T00:30:25.932Z,10.39
2022-11-03T00:35:30.115Z,10.38
2022-11-03T00:40:34.235Z,10.51
2022-11-03T00:45:38.404Z,10.52
2022-11-03T00:50:42.569Z,10.61
2022-11-03T00:55:44.844Z,10.68
2022-11-03T01:00:49.112Z,10.70
2022-11-03T01:05:53.142Z,10.73
2022-11-03T01:10:57.338Z,10.82
2022-11-03T01:16:01.516Z,10.77
2022-11-03T01:21:05.650Z,10.80
2022-11-03T01:26:09.803Z,10.91
2022-11-03T01:31:13.988Z,10.92
2022-11-03T01:36:18.124Z,10.94
2022-11-03T01:41:22.395Z,10.92
2022-11-03T01:46:26.460Z,10.85
2022-11-03T01:51:30.631Z,10.79
2022-11-03T01:56:34.763Z,10.80
2022-11-03T02:01:39.040Z,10.76
2022-11-03T02:06:43.141Z,10.76
2022-11-03T02:11:47.266Z,10.73
2022-11-03T02:16:51.437Z,10.74
2022-11-03T02:21:55.601Z,10.77
2022-11-03T02:26:59.764Z,10.79
2022-11-03T02:32:03.915Z,10.77
2022-11-03T02:37:08.064Z,10.79
2022-11-03T02:42:12.234Z,10.73
2022-11-03T02:47:16.411Z,10.73
2022-11-03T02:52:20.561Z,10.78
2022-11-03T02:57:24.727Z,10.86
2022-11-03T03:02:28.953Z,10.79
2022-11-03T03:07:33.036Z,10.76
2022-11-03T03:12:37.183Z,10.80
2022-11-03T03:17:41.428Z,10.84
2022-11-03T03:22:45.511Z,10.88
2022-11-03T03:27:49.653Z,10.88
2022-11-03T03:32:53.881Z,10.87
2022-11-03T03:37:58.087Z,10.86
2022-11-03T03:43:02.176Z,10.84
2022-11-03T03:48:06.502Z,10.91
2022-11-03T03:53:10.509Z,10.90
2022-11-03T03:58:14.659Z,10.88
2022-11-03T04:03:18.816Z,10.89
2022-11-03T04:08:22.961Z,10.89
2022-11-03T04:13:27.356Z,10.89
2022-11-03T04:18:31.383Z,10.87
2022-11-03T04:23:35.438Z,10.90
2022-11-03T04:28:39.607Z,10.88
2022-11-03T04:33:43.781Z,10.87
2022-11-03T04:38:47.944Z,10.92
2022-11-03T04:43:52.108Z,10.90
2022-11-03T04:48:56.242Z,10.94
2022-11-03T04:54:00.438Z,10.86
2022-11-03T04:59:04.586Z,10.93
2022-11-03T05:04:08.732Z,10.92
2022-11-03T05:09:12.896Z,10.91
2022-11-03T05:14:17.056Z,10.90
2022-11-03T05:19:21.225Z,10.92
2022-11-03T05:24:25.361Z,11.02
2022-11-03T05:29:29.524Z,11.05
2022-11-03T05:34:33.732Z,11.12
2022-11-03T05:39:37.885Z,11.17
2022-11-03T05:44:41.997Z,11.14
2022-11-03T05:49:46.184Z,11.16
2022-11-03T05:54:50.351Z,11.16
2022-11-03T05:59:54.496Z,11.16
2022-11-03T06:04:58.653Z,11.14
2022-11-03T06:10:02.927Z,11.21
2022-11-03T06:15:06.998Z,11.20
2022-11-03T06:20:11.158Z,11.25
2022-11-03T06:25:13.434Z,11.34
2022-11-03T06:30:17.579Z,11.34
2022-11-03T06:35:21.774Z,11.36
2022-11-03T06:40:25.911Z,11.33
2022-11-03T06:45:30.055Z,11.40
2022-11-03T06:50:34.230Z,11.50
2022-11-03T06:55:38.405Z,11.56
2022-11-03T07:00:45.857Z,11.63
2022-11-03T07:05:46.729Z,11.62
2022-11-03T07:10:50.887Z,11.69
2022-11-03T07:15:55.059Z,11.73
2022-11-03T07:20:59.184Z,11.72
2022-11-03T07:26:03.342Z,11.80
2022-11-03T07:31:10.181Z,11.79
2022-11-03T07:36:16.164Z,11.78
2022-11-03T07:41:15.830Z,11.89
2022-11-03T07:46:20.035Z,11.87
2022-11-03T07:51:24.136Z,11.87
2022-11-03T07:56:28.387Z,11.86
2022-11-03T08:01:32.575Z,11.90
2022-11-03T08:06:36.663Z,11.96
2022-11-03T08:11:40.806Z,12.12
2022-11-03T08:16:44.957Z,12.20
2022-11-03T08:21:49.120Z,12.27
2022-11-03T08:26:53.277Z,12.36
2022-11-03T08:31:57.425Z,12.47
2022-11-03T08:37:01.616Z,12.53
2022-11-03T08:42:05.812Z,12.62
2022-11-03T08:47:09.925Z,12.71
2022-11-03T08:52:14.107Z,12.77
2022-11-03T08:57:18.257Z,12.79
2022-11-03T09:02:22.441Z,12.89
2022-11-03T09:12:30.801Z,13.13
2022-11-03T09:17:34.901Z,13.29
2022-11-03T09:22:39.038Z,13.45
2022-11-03T09:27:43.235Z,13.63
2022-11-03T09:32:47.354Z,13.76
2022-11-03T09:37:51.563Z,13.88
2022-11-03T09:42:55.706Z,13.95
2022-11-03T09:47:59.821Z,14.08
2022-11-03T09:53:04.289Z,14.17
2022-11-03T09:58:08.425Z,14.22
2022-11-03T10:03:12.331Z,14.21
2022-11-03T10:08:18.482Z,14.25
2022-11-03T10:13:20.641Z,14.27
2022-11-03T10:18:24.839Z,14.29
2022-11-03T10:23:28.986Z,14.35
2022-11-03T10:28:33.123Z,14.31
2022-11-03T10:33:37.295Z,14.32
2022-11-03T10:38:41.586Z,14.33
2022-11-03T10:43:45.631Z,14.36
2022-11-03T10:53:53.924Z,14.47
2022-11-03T11:04:02.299Z,14.62
2022-11-03T11:09:06.419Z,14.60
2022-11-03T11:14:10.563Z,14.59
2022-11-03T11:19:14.718Z,14.58
2022-11-03T11:24:18.904Z,14.62
2022-11-03T11:29:23.074Z,14.77
2022-11-03T11:34:27.260Z,14.90
2022-11-03T11:39:31.378Z,15.14
2022-11-03T11:44:35.651Z,15.43
2022-11-03T11:49:39.688Z,15.49
2022-11-03T11:54:41.937Z,15.63
2022-11-03T11:59:46.127Z,15.74
2022-11-03T12:04:50.300Z,15.77
2022-11-03T12:09:54.446Z,15.85
2022-11-03T12:14:58.607Z,15.75
2022-11-03T12:20:02.730Z,15.56
2022-11-03T12:25:05.036Z,15.38
2022-11-03T12:30:09.246Z,15.33
2022-11-03T12:35:13.357Z,15.44
2022-11-03T12:40:17.499Z,15.46
2022-11-03T12:45:21.783Z,15.33
2022-11-03T12:50:25.815Z,15.64
2022-11-03T12:55:29.987Z,15.82
2022-11-03T13:00:34.167Z,15.75
2022-11-03T13:05:38.293Z,15.58
2022-11-03T13:10:42.482Z,15.21
2022-11-03T13:15:46.618Z,15.13
2022-11-03T13:20:50.810Z,15.02
2022-11-03T13:25:55.046Z,14.87
2022-11-03T13:30:59.138Z,14.78
2022-11-03T13:36:03.355Z,14.73
2022-11-03T13:41:08.972Z,14.74
2022-11-03T13:46:11.584Z,14.65
2022-11-03T13:51:15.825Z,14.56
2022-11-03T13:56:22.132Z,14.40
2022-11-03T14:01:24.237Z,14.39
2022-11-03T14:06:28.219Z,14.37
2022-11-03T14:11:32.422Z,14.29
2022-11-03T14:16:36.627Z,14.25
2022-11-03T14:21:40.714Z,14.16
2022-11-03T14:26:44.946Z,14.14
2022-11-03T14:31:49.042Z,14.11
2022-11-03T14:36:53.214Z,14.13
2022-11-03T14:41:57.343Z,14.12
2022-11-03T14:47:01.487Z,14.06
2022-11-03T14:52:05.672Z,14.02
2022-11-03T14:57:09.870Z,13.97
2022-11-03T15:02:14.089Z,13.95
2022-11-03T15:07:18.135Z,13.92
2022-11-03T15:12:22.340Z,13.88
2022-11-03T15:17:26.501Z,13.79
2022-11-03T15:27:34.808Z,13.59
2022-11-03T15:32:38.956Z,13.58
2022-11-03T15:37:43.099Z,13.54
2022-11-03T15:42:47.258Z,13.43
2022-11-03T15:47:54.653Z,13.19
2022-11-03T15:52:55.578Z,12.87
2022-11-03T15:57:59.748Z,12.77
2022-11-03T16:03:03.998Z,12.66
2022-11-03T16:08:08.428Z,12.63
2022-11-03T16:13:12.265Z,12.45
2022-11-03T16:18:16.394Z,12.28
2022-11-03T16:23:20.638Z,12.10
2022-11-03T16:33:28.881Z,11.84
2022-11-03T16:38:33.067Z,11.75
2022-11-03T16:43:37.193Z,11.69
2022-11-03T16:48:41.375Z,11.62
2022-11-03T16:53:45.547Z,11.59
2022-11-03T16:58:49.700Z,11.53
2022-11-03T17:03:53.826Z,11.58
2022-11-03T17:08:57.952Z,11.57
2022-11-03T17:14:02.178Z,11.51
2022-11-03T17:19:06.292Z,11.44
2022-11-03T17:24:10.479Z,11.45
2022-11-03T17:29:14.627Z,11.40
2022-11-03T17:34:18.773Z,11.39
2022-11-03T17:39:23.087Z,11.36
2022-11-03T17:44:27.137Z,11.37
2022-11-03T17:49:31.335Z,11.44
2022-11-03T17:54:33.539Z,11.47
2022-11-03T17:59:37.730Z,11.51
2022-11-03T18:04:41.841Z,11.55
2022-11-03T18:09:46.044Z,11.54
2022-11-03T18:14:50.219Z,11.57
2022-11-03T18:19:54.473Z,11.56
2022-11-03T18:24:58.525Z,11.58
2022-11-03T18:30:02.697Z,11.55
2022-11-03T18:35:06.856Z,11.56
2022-11-03T18:40:11.033Z,11.57
2022-11-03T18:45:15.174Z,11.58
2022-11-03T18:50:19.289Z,11.53
2022-11-03T18:55:23.499Z,11.51
2022-11-03T19:00:27.650Z,11.47
2022-11-03T19:05:31.881Z,11.47
2022-11-03T19:10:35.970Z,11.48
2022-11-03T19:15:40.131Z,11.46
2022-11-03T19:20:44.323Z,11.50
2022-11-03T19:25:48.459Z,11.54
2022-11-03T19:30:57.656Z,11.57
2022-11-03T19:35:56.763Z,11.52
2022-11-03T19:41:00.917Z,11.52
2022-11-03T19:46:05.075Z,11.46
2022-11-03T19:51:09.263Z,11.41
2022-11-03T19:56:13.433Z,11.38
2022-11-03T20:01:17.630Z,11.34
2022-11-03T20:06:21.789Z,11.27
2022-11-03T20:11:25.855Z,11.26
2022-11-03T20:16:30.059Z,11.23
2022-11-03T20:21:34.640Z,11.20
2022-11-03T20:26:38.383Z,11.19
2022-11-03T20:31:42.517Z,11.17
2022-11-03T20:36:46.714Z,11.15
2022-11-03T20:41:50.850Z,11.16
2022-11-03T20:46:54.996Z,11.17
2022-11-03T20:51:59.173Z,11.21
2022-11-03T20:57:03.343Z,11.25
2022-11-03T21:07:11.673Z,11.25
2022-11-03T21:12:15.901Z,11.27
2022-11-03T21:17:20.063Z,11.32
2022-11-03T21:22:50.261Z,11.35
2022-11-03T21:27:28.335Z,11.38
2022-11-03T21:32:32.512Z,11.44
2022-11-03T21:37:36.676Z,11.50
2022-11-03T21:42:40.957Z,11.51
2022-11-03T21:47:44.998Z,11.53
2022-11-03T21:52:49.123Z,11.54
2022-11-03T21:57:53.237Z,11.55
2022-11-03T22:02:57.444Z,11.56
2022-11-03T22:08:01.585Z,11.57
2022-11-03T22:13:06.181Z,11.56
2022-11-03T22:18:10.060Z,11.56
2022-11-03T22:23:14.066Z,11.58
2022-11-03T22:28:18.595Z,11.60
2022-11-03T22:33:22.357Z,11.59
2022-11-03T22:38:26.582Z,11.58
2022-11-03T22:43:30.696Z,11.59
2022-11-03T22:48:34.866Z,11.60
2022-11-03T22:53:39.023Z,11.61
2022-11-03T22:58:43.183Z,11.63
2022-11-03T23:03:47.339Z,11.61
2022-11-03T23:08:51.554Z,11.59
2022-11-03T23:13:55.702Z,11.52
2022-11-03T23:18:59.846Z,11.49
2022-11-03T23:24:02.087Z,11.40
2022-11-03T23:29:06.261Z,11.28
2022-11-03T23:34:10.446Z,11.20
2022-11-03T23:39:14.557Z,11.07
2022-11-03T23:44:18.750Z,10.97
2022-11-03T23:49:22.891Z,10.84
2022-11-03T23:54:27.104Z,10.71
2022-11-03T23:59:31.308Z,10.66
